Airport ICAO


09:40 UTC

9°C

Clear skies


An affordable passengers' Moving Map for your aircraft. Made for the iPad and the iPhone
More information here

LFTH Le Palyvestre


Hyeres FRANCE   VFR CAVOK


METAR LFTH 170930Z AUTO 36015KT CAVOK 09/M06 Q1020 TEMPO 35015G25KT 0h10min

TAF LFTH 170800Z 1709/1809 35011KT CAVOK TEMPO 1709/1712 35015G25KT BECMG 1805/1809 VRB03KT 1h40min





NOTAMS

OPEN